Time;durP1;ratioP1;P1;durP2;ratioP2;P2;SDS_P1;SDS_P2;PMS_P1;PMS_P2;Temp;Humidity;BMP_temperature;BMP_pressure;BME280_temperature;BME280_humidity;BME280_pressure;Samples;Min_cycle;Max_cycle;Signal;HPM_P1;HPM_P2
2023/11/12 00:00:22;;;;;;;9.52;2.33;;;;;;;0.64;100.00;92222.81;2088749;28;20025;-81
2023/11/12 00:01:23;;;;;;;20.67;2.42;;;;;;;0.62;100.00;92231.09;2097900;28;20054;-81
2023/11/12 00:02:24;;;;;;;4.90;2.08;;;;;;;0.71;100.00;92209.69;2096447;28;20099;-80
2023/11/12 00:03:25;;;;;;;2.28;2.08;;;;;;;0.80;100.00;92222.47;2089443;28;20036;-83
2023/11/12 00:04:26;;;;;;;2.15;1.90;;;;;;;0.81;100.00;92216.81;2097741;28;20613;-80
2023/11/12 00:05:27;;;;;;;5.03;2.33;;;;;;;0.88;100.00;92218.69;2080077;28;20029;-81
2023/11/12 00:06:28;;;;;;;3.85;1.92;;;;;;;0.90;100.00;92216.44;2080610;28;20033;-78
2023/11/12 00:07:29;;;;;;;2.33;2.10;;;;;;;0.99;100.00;92214.19;2103754;28;20407;-82
2023/11/12 00:08:31;;;;;;;2.83;1.85;;;;;;;0.80;100.00;92207.44;2104381;28;20031;-81
2023/11/12 00:09:32;;;;;;;4.43;2.53;;;;;;;0.93;100.00;92211.19;2097573;28;20032;-79
2023/11/12 00:10:34;;;;;;;3.65;2.25;;;;;;;0.99;100.00;92201.78;2069566;28;20017;-79
2023/11/12 00:11:36;;;;;;;1.77;1.65;;;;;;;0.94;100.00;92210.06;2088212;28;20377;-79
2023/11/12 00:12:40;;;;;;;2.55;1.95;;;;;;;0.93;100.00;92205.19;2105191;28;20061;-82
2023/11/12 00:13:41;;;;;;;2.72;2.10;;;;;;;0.87;100.00;92207.41;2090069;28;20031;-78
2023/11/12 00:14:45;;;;;;;2.08;1.85;;;;;;;0.92;100.00;92203.66;2081691;28;20369;-81
2023/11/12 00:15:46;;;;;;;2.20;2.00;;;;;;;0.96;100.00;92204.41;2079430;28;20029;-80
2023/11/12 00:16:47;;;;;;;3.05;2.35;;;;;;;0.78;100.00;92206.28;2090959;28;20623;-78
2023/11/12 00:17:48;;;;;;;3.45;1.90;;;;;;;0.87;100.00;92198.78;2097436;28;20029;-81
2023/11/12 00:18:50;;;;;;;2.10;1.98;;;;;;;0.79;100.00;92195.41;2090048;28;20024;-81
2023/11/12 00:19:52;;;;;;;2.97;2.10;;;;;;;0.89;100.00;92202.53;2096988;28;20381;-81
2023/11/12 00:20:53;;;;;;;2.08;1.88;;;;;;;0.79;100.00;92203.31;2086331;28;20080;-81
2023/11/12 00:21:56;;;;;;;2.97;1.77;;;;;;;0.79;100.00;92203.31;2084493;28;20115;-81
2023/11/12 00:22:59;;;;;;;3.22;1.88;;;;;;;0.61;100.00;92200.66;2097374;28;20089;-79
2023/11/12 00:24:01;;;;;;;2.25;1.80;;;;;;;0.74;100.00;92190.50;2097225;28;20090;-81
2023/11/12 00:25:03;;;;;;;1.95;1.85;;;;;;;0.75;100.00;92194.66;2104723;28;20028;-79
2023/11/12 00:26:04;;;;;;;2.05;1.70;;;;;;;0.74;100.00;92193.13;2080436;28;20996;-82
2023/11/12 00:27:05;;;;;;;2.88;1.85;;;;;;;0.84;100.00;92178.50;2085642;28;20025;-81
2023/11/12 00:28:06;;;;;;;1.90;1.80;;;;;;;0.83;100.00;92184.88;2091698;28;20025;-81
2023/11/12 00:29:07;;;;;;;1.92;1.77;;;;;;;0.94;100.00;92188.25;2085949;28;20031;-81
2023/11/12 00:30:09;;;;;;;2.75;1.77;;;;;;;0.85;100.00;92172.09;2105724;28;20032;-81
2023/11/12 00:31:12;;;;;;;3.88;1.70;;;;;;;0.75;100.00;92178.88;2083599;28;20652;-81
2023/11/12 00:32:14;;;;;;;2.15;1.80;;;;;;;0.74;100.00;92175.47;2092720;28;20111;-80
2023/11/12 00:33:15;;;;;;;2.15;1.70;;;;;;;0.79;100.00;92177.00;2104493;28;20526;-79
2023/11/12 00:34:16;;;;;;;3.92;2.00;;;;;;;0.85;100.00;92167.59;2097125;28;20016;-79
2023/11/12 00:35:17;;;;;;;2.20;1.73;;;;;;;0.73;100.00;92165.34;2105244;28;20066;-82
2023/11/12 00:36:18;;;;;;;6.80;2.00;;;;;;;0.68;100.00;92166.47;2097749;28;20050;-81
2023/11/12 00:37:19;;;;;;;2.72;2.00;;;;;;;0.69;100.00;92160.09;2094420;28;20660;-81
2023/11/12 00:38:20;;;;;;;3.60;1.85;;;;;;;0.82;100.00;92163.09;2105813;28;20027;-82
2023/11/12 00:39:21;;;;;;;2.25;2.05;;;;;;;0.80;100.00;92164.59;2096219;28;20054;-80
2023/11/12 00:40:22;;;;;;;2.50;1.85;;;;;;;0.74;100.00;92159.69;2105567;28;20077;-79
2023/11/12 00:41:23;;;;;;;2.88;1.85;;;;;;;0.76;100.00;92159.34;2096340;28;20846;-82
2023/11/12 00:42:24;;;;;;;2.63;2.05;;;;;;;0.82;100.00;92151.81;2095038;28;20024;-81
2023/11/12 00:43:29;;;;;;;3.88;2.10;;;;;;;0.72;100.00;92148.81;2097888;28;20075;-80
2023/11/12 00:44:30;;;;;;;2.85;1.80;;;;;;;0.77;100.00;92152.19;2096130;28;20032;-82
2023/11/12 00:45:31;;;;;;;2.10;1.90;;;;;;;0.75;100.00;92149.97;2089149;28;20032;-79
2023/11/12 00:46:32;;;;;;;3.35;2.00;;;;;;;0.72;100.00;92150.69;2097783;28;20090;-83
2023/11/12 00:47:33;;;;;;;2.08;1.75;;;;;;;0.79;100.00;92152.56;2089640;28;20029;-81
2023/11/12 00:48:34;;;;;;;16.42;2.30;;;;;;;0.73;100.00;92149.56;2106412;28;20051;-80
2023/11/12 00:49:35;;;;;;;51.38;3.05;;;;;;;0.58;100.00;92138.31;2097636;28;20031;-81
2023/11/12 00:50:36;;;;;;;2.38;2.17;;;;;;;0.72;100.00;92138.28;2097905;28;20122;-81
2023/11/12 00:51:39;;;;;;;2.88;2.13;;;;;;;0.81;100.00;92143.19;2106297;28;20040;-81
2023/11/12 00:52:40;;;;;;;3.35;2.13;;;;;;;0.82;100.00;92139.41;2097876;28;20813;-82
2023/11/12 00:53:41;;;;;;;2.88;2.17;;;;;;;0.81;100.00;92137.91;2099304;28;20043;-84
2023/11/12 00:54:42;;;;;;;2.03;1.92;;;;;;;0.60;100.00;92143.94;2093429;28;20024;-82
2023/11/12 00:55:43;;;;;;;3.80;2.30;;;;;;;0.55;100.00;92138.31;2083950;28;20028;-81
2023/11/12 00:56:44;;;;;;;2.17;1.98;;;;;;;0.67;100.00;92133.44;2092020;28;20119;-79
2023/11/12 00:57:45;;;;;;;2.42;2.08;;;;;;;0.63;100.00;92143.19;2088758;28;20961;-79
2023/11/12 00:58:46;;;;;;;2.38;2.17;;;;;;;0.56;100.00;92134.56;2089731;28;20470;-80
2023/11/12 00:59:47;;;;;;;2.05;1.95;;;;;;;0.60;100.00;92140.56;2090248;28;20444;-80
2023/11/12 01:00:48;;;;;;;5.03;2.20;;;;;;;0.53;100.00;92135.28;2089947;28;20043;-82
2023/11/12 01:01:49;;;;;;;6.57;2.00;;;;;;;0.60;100.00;92135.31;2097900;28;20469;-82
2023/11/12 01:02:50;;;;;;;2.55;2.20;;;;;;;0.60;100.00;92137.94;2089249;28;20031;-81
2023/11/12 01:03:51;;;;;;;2.40;2.20;;;;;;;0.62;100.00;92143.59;2105410;28;20081;-81
2023/11/12 01:04:52;;;;;;;2.15;1.80;;;;;;;0.54;100.00;92134.94;2089019;28;20107;-81
2023/11/12 01:05:53;;;;;;;3.58;2.03;;;;;;;0.44;100.00;92135.66;2087263;28;20028;-80
2023/11/12 01:06:54;;;;;;;2.10;1.90;;;;;;;0.48;100.00;92139.06;2097996;28;20031;-80
2023/11/12 01:07:55;;;;;;;3.10;1.90;;;;;;;0.47;100.00;92130.41;2099887;28;20507;-81
2023/11/12 01:08:56;;;;;;;4.03;1.80;;;;;;;0.43;100.00;92127.03;2106294;28;20043;-79
2023/11/12 01:09:59;;;;;;;3.85;1.67;;;;;;;0.40;100.00;92127.06;2096452;28;20036;-82
2023/11/12 01:11:00;;;;;;;2.05;1.83;;;;;;;0.41;100.00;92121.41;2097690;28;20078;-79
2023/11/12 01:12:02;;;;;;;1.80;1.70;;;;;;;0.42;100.00;92130.06;2097939;28;20025;-82
2023/11/12 01:13:03;;;;;;;2.30;2.10;;;;;;;0.41;100.00;92126.69;2091434;28;20031;-80
2023/11/12 01:14:03;;;;;;;2.13;1.90;;;;;;;0.34;100.00;92131.91;2088733;28;20051;-82
2023/11/12 01:15:06;;;;;;;2.10;1.90;;;;;;;0.35;100.00;92127.41;2097214;28;20055;-81
2023/11/12 01:16:08;;;;;;;2.63;2.10;;;;;;;0.29;100.00;92121.03;2079236;28;20023;-78
2023/11/12 01:17:10;;;;;;;35.85;2.92;;;;;;;0.33;100.00;92132.31;2090063;28;20021;-80
2023/11/12 01:18:11;;;;;;;30.10;2.65;;;;;;;0.17;100.00;92128.16;2096573;28;20023;-79
2023/11/12 01:19:12;;;;;;;7.05;2.33;;;;;;;0.24;100.00;92127.41;2096544;28;20424;-81
2023/11/12 01:20:14;;;;;;;5.65;2.08;;;;;;;0.28;100.00;92120.28;2096760;28;20086;-81
2023/11/12 01:21:15;;;;;;;18.00;2.10;;;;;;;0.22;100.00;92114.66;2083377;28;20024;-80
2023/11/12 01:22:28;;;;;;;8.35;1.80;;;;;;;0.27;100.00;92123.31;2084901;28;20056;-79
2023/11/12 01:23:30;;;;;;;5.55;1.95;;;;;;;0.28;100.00;92114.28;2088740;28;20034;-80
2023/11/12 01:24:31;;;;;;;8.80;2.25;;;;;;;0.27;100.00;92115.41;2094118;28;20023;-80
2023/11/12 01:25:35;;;;;;;10.45;2.30;;;;;;;0.08;100.00;92112.00;2105035;28;20028;-80
2023/11/12 01:26:36;;;;;;;13.18;2.17;;;;;;;0.12;100.00;92112.75;2093536;28;20031;-79
2023/11/12 01:27:37;;;;;;;16.00;1.88;;;;;;;0.31;100.00;92103.00;2080089;28;20063;-81
2023/11/12 01:28:38;;;;;;;31.80;2.30;;;;;;;0.29;100.00;92110.53;2088550;28;20039;-81
2023/11/12 01:29:39;;;;;;;26.17;2.58;;;;;;;0.28;100.00;92109.78;2083284;28;20071;-81
2023/11/12 01:30:41;;;;;;;15.32;1.90;;;;;;;0.20;100.00;92108.28;2089331;28;20021;-78
2023/11/12 01:31:42;;;;;;;19.15;1.85;;;;;;;0.06;100.00;92106.38;2078270;28;20055;-80
2023/11/12 01:32:43;;;;;;;30.95;2.10;;;;;;;0.04;100.00;92108.63;2082356;28;20447;-81
2023/11/12 01:33:44;;;;;;;14.00;1.83;;;;;;;-0.04;100.00;92102.63;2097643;28;20043;-79
2023/11/12 01:34:45;;;;;;;25.30;1.92;;;;;;;-0.08;100.00;92095.88;2093646;28;20484;-81
2023/11/12 01:35:46;;;;;;;9.93;1.90;;;;;;;-0.05;100.00;92098.47;2097123;28;20024;-81
2023/11/12 01:36:47;;;;;;;40.50;1.88;;;;;;;-0.40;100.00;92093.91;2088810;28;20044;-81
2023/11/12 01:37:48;;;;;;;28.52;1.92;;;;;;;-0.20;100.00;92096.22;2084716;28;20024;-78
2023/11/12 01:38:49;;;;;;;11.15;1.60;;;;;;;-0.04;100.00;92091.38;2105921;28;20028;-79
2023/11/12 01:39:50;;;;;;;10.90;1.55;;;;;;;-0.14;100.00;92081.59;2093119;28;20443;-81
2023/11/12 01:40:51;;;;;;;10.70;1.50;;;;;;;0.10;100.00;92080.88;2094495;28;20496;-82
2023/11/12 01:41:53;;;;;;;25.95;1.63;;;;;;;0.02;100.00;92083.88;2086911;28;20027;-79
2023/11/12 01:44:45;;;;;;;19.48;1.65;;;;;;;-0.12;100.00;92082.72;2090546;28;20115;-79
2023/11/12 01:45:46;;;;;;;6.15;1.40;;;;;;;-0.03;100.00;92082.38;2105711;28;20027;-80
2023/11/12 01:46:48;;;;;;;26.05;1.90;;;;;;;-0.22;100.00;92082.69;2095004;28;20115;-80
2023/11/12 01:47:50;;;;;;;11.48;1.38;;;;;;;-0.16;100.00;92083.84;2095881;28;20050;-83
2023/11/12 01:48:53;;;;;;;20.92;1.70;;;;;;;-0.15;100.00;92083.47;2105916;28;20028;-82
2023/11/12 01:49:54;;;;;;;16.50;1.52;;;;;;;-0.20;100.00;92072.59;2087409;28;20017;-81
2023/11/12 01:50:55;;;;;;;16.02;1.40;;;;;;;-0.20;100.00;92078.59;2088636;28;20051;-81
2023/11/12 01:51:57;;;;;;;5.60;1.30;;;;;;;-0.10;100.00;92077.84;2094661;28;20028;-80
2023/11/12 01:52:58;;;;;;;12.63;1.30;;;;;;;-0.04;100.00;92073.00;2080043;28;20886;-81
2023/11/12 01:54:00;;;;;;;5.75;1.27;;;;;;;-0.01;100.00;92072.22;2094384;28;20021;-82
2023/11/12 01:55:03;;;;;;;13.77;1.80;;;;;;;-0.05;100.00;92071.47;2086634;28;20107;-82
2023/11/12 01:56:10;;;;;;;6.78;1.30;;;;;;;-0.12;100.00;92074.09;2084785;28;20032;-80
2023/11/12 01:57:11;;;;;;;6.20;1.33;;;;;;;-0.18;100.00;92065.06;2104801;28;20029;-81
2023/11/12 01:58:13;;;;;;;4.43;1.55;;;;;;;-0.18;100.00;92063.19;2096303;28;20049;-81
2023/11/12 01:59:14;;;;;;;4.50;1.27;;;;;;;-0.16;100.00;92066.22;2097540;28;20025;-82
2023/11/12 02:00:16;;;;;;;3.72;1.40;;;;;;;-0.31;100.00;92069.94;2089083;28;20025;-79
2023/11/12 02:01:17;;;;;;;8.68;1.50;;;;;;;-0.37;100.00;92069.56;2086930;28;20119;-83
2023/11/12 02:02:19;;;;;;;3.45;1.45;;;;;;;-0.31;100.00;92072.56;2089668;28;20021;-82
2023/11/12 02:03:21;;;;;;;1.83;1.73;;;;;;;-0.23;100.00;92068.06;2075795;28;20028;-81
2023/11/12 02:04:23;;;;;;;7.03;1.80;;;;;;;-0.33;100.00;92066.94;2074297;28;20029;-80
2023/11/12 02:05:24;;;;;;;3.55;1.70;;;;;;;-0.46;100.00;92066.53;2073713;28;20029;-82
2023/11/12 02:06:25;;;;;;;4.20;1.20;;;;;;;-0.53;100.00;92067.28;2086263;28;20028;-80
2023/11/12 02:07:27;;;;;;;7.28;1.33;;;;;;;-0.57;100.00;92063.91;2097391;28;20074;-80
2023/11/12 02:08:33;;;;;;;1.40;1.30;;;;;;;-0.50;100.00;92071.03;2088306;28;20028;-82
2023/11/12 02:09:34;;;;;;;14.93;1.67;;;;;;;-0.72;100.00;92064.22;2100177;28;20016;-78
2023/11/12 02:10:36;;;;;;;1.33;1.20;;;;;;;-0.73;100.00;92068.72;2079322;28;20024;-82
2023/11/12 02:11:38;;;;;;;7.85;1.55;;;;;;;-0.76;100.00;92072.06;2088457;28;20032;-81
2023/11/12 02:12:47;;;;;;;3.28;1.63;;;;;;;-0.67;100.00;92064.59;2097372;28;20028;-80
2023/11/12 02:13:47;;;;;;;9.00;1.20;;;;;;;-0.92;100.00;92069.00;2087549;28;20746;-82
2023/11/12 02:14:48;;;;;;;8.55;1.20;;;;;;;-0.85;100.00;92069.78;2105496;28;20020;-82
2023/11/12 02:15:50;;;;;;;7.22;1.10;;;;;;;-0.74;100.00;92059.34;2085257;28;20089;-81
2023/11/12 02:16:51;;;;;;;6.43;1.10;;;;;;;-0.79;100.00;92078.03;2079881;28;20025;-79
2023/11/12 02:17:52;;;;;;;3.70;1.00;;;;;;;-0.70;100.00;92070.59;2094478;28;20051;-81
2023/11/12 02:18:54;;;;;;;6.93;1.10;;;;;;;-0.74;100.00;92072.47;2078901;28;20469;-80
2023/11/12 02:20:02;;;;;;;3.28;1.17;;;;;;;-0.75;100.00;92070.94;2097627;28;20020;-81
2023/11/12 02:21:03;;;;;;;17.00;1.52;;;;;;;-0.77;100.00;92066.06;2107270;28;20416;-81
2023/11/12 02:24:08;;;;;;;;;;;;;;;-1.23;100.00;92060.63;2118745;27;20128;-79
2023/11/12 02:25:10;;;;;;;7.53;1.23;;;;;;;-1.20;100.00;92067.03;2104837;28;20830;-80
2023/11/12 02:26:11;;;;;;;3.75;1.10;;;;;;;-1.03;100.00;92061.84;2111346;28;20103;-81
2023/11/12 02:27:12;;;;;;;14.68;1.60;;;;;;;-1.16;100.00;92065.16;2096011;28;20036;-79
2023/11/12 02:28:18;;;;;;;9.18;1.30;;;;;;;-1.18;100.00;92057.69;2104586;28;20025;-80
2023/11/12 02:29:21;;;;;;;14.27;1.70;;;;;;;-1.25;100.00;92064.75;2098057;27;20086;-81
2023/11/12 02:30:23;;;;;;;17.48;1.63;;;;;;;-1.09;100.00;92058.09;2107925;28;20034;-82
2023/11/12 02:31:24;;;;;;;5.35;1.50;;;;;;;-1.18;100.00;92056.94;2104937;28;20604;-82
2023/11/12 02:32:45;;;;;;;9.73;1.38;;;;;;;-1.14;100.00;92052.44;2094604;28;20031;-80
2023/11/12 02:33:47;;;;;;;6.30;1.20;;;;;;;-1.06;100.00;92057.34;2085374;28;20047;-81
2023/11/12 02:34:48;;;;;;;1.67;1.25;;;;;;;-1.10;100.00;92050.56;2103705;28;20384;-79
2023/11/12 02:35:49;;;;;;;7.97;1.40;;;;;;;-1.14;100.00;92057.69;2101816;28;20059;-82
2023/11/12 02:36:50;;;;;;;9.13;1.80;;;;;;;-1.06;100.00;92053.97;2121486;28;20023;-82
2023/11/12 02:37:51;;;;;;;4.35;1.20;;;;;;;-0.99;100.00;92054.00;2102722;28;20450;-81
2023/11/12 02:38:52;;;;;;;2.72;1.80;;;;;;;-1.00;100.00;92046.53;2102920;28;20024;-79
2023/11/12 02:39:53;;;;;;;1.92;1.40;;;;;;;-0.87;100.00;92042.44;2104502;28;20063;-81
2023/11/12 02:40:54;;;;;;;1.35;1.25;;;;;;;-0.88;100.00;92039.06;2082796;28;20023;-82
2023/11/12 02:41:55;;;;;;;1.40;1.30;;;;;;;-0.83;100.00;92045.84;2101890;28;20027;-82
2023/11/12 02:42:56;;;;;;;1.50;1.40;;;;;;;-0.92;100.00;92043.56;2094186;28;20480;-79
2023/11/12 02:43:57;;;;;;;3.08;1.70;;;;;;;-0.90;100.00;92041.31;2094072;28;20028;-82
2023/11/12 02:44:59;;;;;;;1.63;1.52;;;;;;;-0.74;100.00;92035.00;2109623;28;20016;-79
2023/11/12 02:46:00;;;;;;;2.00;1.35;;;;;;;-0.90;100.00;92040.56;2105548;28;20920;-82
2023/11/12 02:47:01;;;;;;;3.83;1.27;;;;;;;-1.03;100.00;92037.50;2112833;28;20023;-82
2023/11/12 02:48:02;;;;;;;7.18;1.38;;;;;;;-1.05;100.00;92042.38;2101035;28;20105;-82
2023/11/12 02:49:27;;;;;;;1.50;1.40;;;;;;;-1.04;100.00;92031.50;2100139;28;20413;-80
2023/11/12 02:50:35;;;;;;;1.58;1.48;;;;;;;-1.02;100.00;92029.25;2101436;28;20032;-78
2023/11/12 02:51:36;;;;;;;2.88;1.30;;;;;;;-0.98;100.00;92025.91;2103375;28;20028;-81
2023/11/12 02:52:37;;;;;;;45.17;2.20;;;;;;;-1.02;100.00;92026.63;2094760;28;20028;-80
2023/11/12 02:53:38;;;;;;;14.80;1.60;;;;;;;-1.04;100.00;92031.50;2101391;28;20096;-80
2023/11/12 02:54:39;;;;;;;6.80;1.63;;;;;;;-1.16;100.00;92026.59;2095002;28;20021;-79
2023/11/12 02:55:41;;;;;;;1.50;1.40;;;;;;;-0.97;100.00;92019.53;2093276;28;20464;-81
2023/11/12 02:56:42;;;;;;;1.33;1.23;;;;;;;-0.95;100.00;92022.56;2106892;28;20031;-82
2023/11/12 02:57:46;;;;;;;3.40;1.55;;;;;;;-0.92;100.00;92021.78;2097280;28;20027;-80
2023/11/12 02:58:48;;;;;;;2.67;1.40;;;;;;;-0.83;100.00;92012.47;2095952;28;20071;-81
2023/11/12 02:59:50;;;;;;;8.02;1.35;;;;;;;-1.01;100.00;92019.53;2093504;28;20031;-83
2023/11/12 03:00:51;;;;;;;1.67;1.30;;;;;;;-0.98;100.00;92018.78;2094323;28;20020;-80
2023/11/12 03:01:52;;;;;;;1.55;1.42;;;;;;;-0.90;100.00;92016.94;2104375;28;20024;-81
2023/11/12 03:03:00;;;;;;;1.65;1.23;;;;;;;-0.94;100.00;92008.31;2098848;28;20956;-81
2023/11/12 03:04:01;;;;;;;1.40;1.30;;;;;;;-0.91;100.00;92012.81;2111170;28;20023;-80
2023/11/12 03:05:02;;;;;;;3.42;1.30;;;;;;;-0.91;100.00;92003.09;2100593;28;20142;-81
2023/11/12 03:06:04;;;;;;;4.63;1.17;;;;;;;-0.95;100.00;91997.06;2085932;28;20029;-82
2023/11/12 03:07:06;;;;;;;2.55;1.42;;;;;;;-0.92;100.00;91998.19;2095765;28;20206;-82
2023/11/12 03:08:07;;;;;;;15.52;1.50;;;;;;;-1.00;100.00;91997.44;2086617;28;20135;-80
2023/11/12 03:09:09;;;;;;;13.20;1.48;;;;;;;-0.98;100.00;91997.06;2102554;28;20024;-80
2023/11/12 03:10:10;;;;;;;36.35;1.85;;;;;;;-1.06;100.00;91994.41;2087763;28;20480;-82
2023/11/12 03:11:12;;;;;;;81.35;2.40;;;;;;;-1.22;100.00;91991.38;2086613;28;20473;-81
2023/11/12 03:12:13;;;;;;;40.10;1.75;;;;;;;-1.19;100.00;91982.75;2105588;28;20021;-80
2023/11/12 03:13:14;;;;;;;17.73;1.58;;;;;;;-0.96;100.00;91986.97;2080227;28;20120;-81
2023/11/12 03:14:17;;;;;;;8.60;1.23;;;;;;;-0.93;100.00;91978.34;2095997;28;20374;-84
2023/11/12 03:15:19;;;;;;;14.32;1.40;;;;;;;-0.83;100.00;91978.38;2090385;28;20024;-79
2023/11/12 03:16:20;;;;;;;30.52;1.70;;;;;;;-0.91;100.00;91976.09;2095786;28;20049;-81
2023/11/12 03:17:21;;;;;;;26.63;1.52;;;;;;;-0.86;100.00;91975.75;2095633;28;20031;-80
2023/11/12 03:18:22;;;;;;;19.83;1.80;;;;;;;-0.93;100.00;91973.09;2098483;28;20053;-81
2023/11/12 03:19:24;;;;;;;16.23;1.50;;;;;;;-0.94;100.00;91976.84;2112411;28;20024;-82
2023/11/12 03:20:25;;;;;;;9.40;1.50;;;;;;;-0.67;100.00;91974.66;2082669;28;20021;-79
2023/11/12 03:21:27;;;;;;;4.50;1.30;;;;;;;-0.63;100.00;91967.53;2070336;28;20040;-84
2023/11/12 03:22:28;;;;;;;24.77;1.60;;;;;;;-0.79;100.00;91966.03;2084912;28;20421;-82
2023/11/12 03:23:29;;;;;;;3.95;1.40;;;;;;;-0.78;100.00;91961.53;2086264;28;20053;-81
2023/11/12 03:24:30;;;;;;;5.05;1.30;;;;;;;-0.75;100.00;91960.75;2104094;28;20392;-83
2023/11/12 03:25:31;;;;;;;16.10;1.63;;;;;;;-0.65;100.00;91962.66;2085062;28;20481;-81
2023/11/12 03:26:32;;;;;;;4.90;1.40;;;;;;;-0.56;100.00;91965.66;2091215;28;20504;-81
2023/11/12 03:27:34;;;;;;;14.07;1.63;;;;;;;-0.82;100.00;91966.00;2096806;28;20043;-81
2023/11/12 03:28:45;;;;;;;21.63;1.58;;;;;;;-0.69;100.00;91961.16;2094302;28;20020;-79
2023/11/12 03:29:46;;;;;;;17.65;1.40;;;;;;;-0.78;100.00;91972.00;2105516;28;20055;-80
2023/11/12 03:30:47;;;;;;;14.88;1.70;;;;;;;-0.76;100.00;91967.88;2079148;28;20036;-82
2023/11/12 03:31:48;;;;;;;12.70;1.52;;;;;;;-0.94;100.00;91961.84;2071065;28;20048;-81
2023/11/12 03:32:49;;;;;;;12.93;1.20;;;;;;;-0.82;100.00;91968.63;2086909;28;20076;-81
2023/11/12 03:33:50;;;;;;;8.45;1.42;;;;;;;-0.80;100.00;91976.88;2087475;28;20230;-81
2023/11/12 03:34:53;;;;;;;7.68;1.42;;;;;;;-0.88;100.00;91965.63;2114406;28;20024;-84
2023/11/12 03:35:54;;;;;;;18.73;1.60;;;;;;;-0.82;100.00;91966.75;2086224;28;20024;-83
2023/11/12 03:36:55;;;;;;;19.80;1.55;;;;;;;-0.80;100.00;91966.38;2073965;28;20028;-82
2023/11/12 03:37:56;;;;;;;19.23;1.40;;;;;;;-0.76;100.00;91962.63;2095767;28;20027;-83
2023/11/12 03:38:57;;;;;;;6.90;1.80;;;;;;;-0.62;100.00;91953.28;2082698;28;20033;-80
2023/11/12 03:39:58;;;;;;;11.30;1.58;;;;;;;-0.61;100.00;91955.56;2098569;28;20021;-82
2023/11/12 03:40:59;;;;;;;25.75;1.70;;;;;;;-0.65;100.00;91957.41;2079000;28;20020;-80
2023/11/12 03:42:00;;;;;;;15.90;1.50;;;;;;;-0.62;100.00;91961.91;2071363;28;20025;-83
2023/11/12 03:43:02;;;;;;;27.73;1.80;;;;;;;-0.56;100.00;91967.53;2081629;28;20029;-80
2023/11/12 03:44:03;;;;;;;16.52;1.40;;;;;;;-0.44;100.00;91961.16;2079859;28;20021;-83
2023/11/12 03:45:05;;;;;;;21.85;1.75;;;;;;;-0.53;100.00;91956.28;2088632;28;20032;-79
2023/11/12 03:46:07;;;;;;;14.77;1.45;;;;;;;-0.52;100.00;91958.56;2097916;28;20032;-81
2023/11/12 03:47:08;;;;;;;11.27;1.50;;;;;;;-0.46;100.00;91964.16;2088283;28;20021;-80
2023/11/12 03:48:10;;;;;;;35.65;1.80;;;;;;;-0.54;100.00;91965.28;2098561;28;20539;-83
2023/11/12 03:49:12;;;;;;;11.13;1.38;;;;;;;-0.60;100.00;91977.28;2091991;28;20029;-81
2023/11/12 03:50:13;;;;;;;11.90;1.55;;;;;;;-0.63;100.00;91972.78;2083701;28;20025;-82
2023/11/12 03:51:14;;;;;;;45.00;2.13;;;;;;;-0.60;100.00;91964.16;2093852;28;20021;-80
2023/11/12 03:52:15;;;;;;;8.27;1.52;;;;;;;-0.52;100.00;91961.19;2094330;28;20892;-80
2023/11/12 03:53:16;;;;;;;25.00;1.77;;;;;;;-0.60;100.00;91964.91;2091186;28;20207;-81
2023/11/12 03:54:17;;;;;;;17.60;1.33;;;;;;;-0.44;100.00;91963.78;2082503;28;20028;-81
2023/11/12 03:55:18;;;;;;;31.45;1.88;;;;;;;-0.40;100.00;91970.53;2072713;28;20017;-80
2023/11/12 03:56:19;;;;;;;15.70;1.48;;;;;;;-0.42;100.00;91969.44;2088909;28;20024;-82
2023/11/12 03:57:22;;;;;;;24.83;1.58;;;;;;;-0.58;100.00;91965.28;2093178;28;20381;-79
2023/11/12 03:58:23;;;;;;;8.02;1.27;;;;;;;-0.59;100.00;91963.78;2089953;28;20033;-81
2023/11/12 03:59:24;;;;;;;19.33;1.50;;;;;;;-0.63;100.00;91957.03;2064249;28;20463;-81
2023/11/12 04:00:25;;;;;;;5.25;1.40;;;;;;;-0.62;100.00;91958.53;2080330;28;20456;-81
2023/11/12 04:01:26;;;;;;;2.35;0.90;;;;;;;-0.49;100.00;91953.66;2098398;28;20024;-81
2023/11/12 04:02:27;;;;;;;2.47;1.15;;;;;;;-0.46;100.00;91950.31;2088628;28;20024;-80
2023/11/12 04:03:28;;;;;;;4.03;1.00;;;;;;;-0.45;100.00;91949.91;2106517;28;20031;-81
2023/11/12 04:04:30;;;;;;;1.00;0.90;;;;;;;-0.39;100.00;91947.69;2097438;28;20107;-84
2023/11/12 04:05:30;;;;;;;3.65;1.17;;;;;;;-0.33;100.00;91956.69;2080210;28;20854;-81
2023/11/12 04:06:32;;;;;;;3.45;0.98;;;;;;;-0.49;100.00;91956.28;2098371;28;20024;-83
2023/11/12 04:07:33;;;;;;;4.95;1.20;;;;;;;-0.56;100.00;91944.69;2090779;28;20503;-82
2023/11/12 04:08:34;;;;;;;3.10;1.10;;;;;;;-0.49;100.00;91948.41;2090144;28;20066;-81
2023/11/12 04:09:52;;;;;;;1.55;1.00;;;;;;;-0.46;100.00;91952.94;2098024;28;20051;-81
2023/11/12 04:10:53;;;;;;;1.30;0.98;;;;;;;-0.46;100.00;91945.81;2084799;28;20449;-83
2023/11/12 04:11:54;;;;;;;1.13;1.02;;;;;;;-0.50;100.00;91942.41;2095024;28;20028;-80
2023/11/12 04:12:55;;;;;;;1.25;1.08;;;;;;;-0.47;100.00;91946.19;2103460;28;20028;-79
2023/11/12 04:13:56;;;;;;;2.15;1.00;;;;;;;-0.51;100.00;91940.94;2102327;28;20020;-81
2023/11/12 04:14:57;;;;;;;2.33;1.15;;;;;;;-0.45;100.00;91943.91;2100064;28;20032;-83
2023/11/12 04:15:58;;;;;;;4.85;1.20;;;;;;;-0.54;100.00;91936.41;2089566;28;20094;-81
2023/11/12 04:16:59;;;;;;;1.15;1.10;;;;;;;-0.40;100.00;91940.91;2089558;28;20031;-82
2023/11/12 04:18:00;;;;;;;4.32;1.10;;;;;;;-0.54;100.00;91934.53;2089958;28;20028;-80
2023/11/12 04:19:02;;;;;;;1.60;1.08;;;;;;;-0.34;100.00;91940.19;2081136;28;20029;-82
2023/11/12 04:20:06;;;;;;;1.50;1.35;;;;;;;-0.37;100.00;91948.06;2098518;28;20021;-83
2023/11/12 04:21:08;;;;;;;3.58;1.10;;;;;;;-0.54;100.00;91936.41;2075623;28;20053;-83
2023/11/12 04:22:09;;;;;;;1.10;1.00;;;;;;;-0.59;100.00;91939.41;2077668;28;20457;-80
2023/11/12 04:23:10;;;;;;;1.20;1.20;;;;;;;-0.57;100.00;91939.78;2097927;28;20461;-81
2023/11/12 04:24:11;;;;;;;1.10;1.10;;;;;;;-0.49;100.00;91940.53;2080740;28;20441;-83
2023/11/12 04:25:12;;;;;;;1.45;1.30;;;;;;;-0.70;100.00;91938.66;2089948;28;20025;-82
2023/11/12 04:26:13;;;;;;;1.20;1.10;;;;;;;-0.64;100.00;91942.41;2073317;28;20057;-82
2023/11/12 04:27:14;;;;;;;1.23;1.13;;;;;;;-0.53;100.00;91941.31;2067012;28;20041;-82
2023/11/12 04:28:15;;;;;;;3.35;1.23;;;;;;;-0.48;100.00;91937.56;2085818;28;20021;-82
2023/11/12 04:29:16;;;;;;;1.13;1.10;;;;;;;-0.44;100.00;91937.53;2080317;28;20094;-81
2023/11/12 04:30:19;;;;;;;1.10;1.10;;;;;;;-0.56;100.00;91936.81;2089916;28;20025;-82
2023/11/12 04:31:21;;;;;;;3.28;1.40;;;;;;;-0.39;100.00;91945.81;2072955;28;20021;-82
2023/11/12 04:32:23;;;;;;;4.13;1.30;;;;;;;-0.42;100.00;91943.94;2064626;28;25877;-81
2023/11/12 04:33:24;;;;;;;6.00;1.40;;;;;;;-0.55;100.00;91942.81;2072732;28;20088;-82
2023/11/12 04:34:24;;;;;;;1.65;1.23;;;;;;;-0.45;100.00;91942.03;2079556;28;20021;-81
2023/11/12 04:35:26;;;;;;;7.25;1.50;;;;;;;-0.52;100.00;91945.44;2088452;28;20029;-80
2023/11/12 04:36:27;;;;;;;3.67;1.38;;;;;;;-0.45;100.00;91938.66;2097599;28;20025;-82
2023/11/12 04:37:28;;;;;;;1.40;1.30;;;;;;;-0.38;100.00;91944.69;2088494;28;20029;-82
2023/11/12 04:38:29;;;;;;;1.17;1.13;;;;;;;-0.37;100.00;91938.28;2081629;28;20097;-82
2023/11/12 04:39:30;;;;;;;1.45;1.20;;;;;;;-0.41;100.00;91934.91;2074899;28;20056;-80
2023/11/12 04:40:31;;;;;;;1.30;1.20;;;;;;;-0.45;100.00;91934.16;2088203;28;20028;-79
2023/11/12 04:41:35;;;;;;;1.42;1.23;;;;;;;-0.38;100.00;91934.19;2082127;28;20025;-82
2023/11/12 04:42:36;;;;;;;1.30;1.13;;;;;;;-0.26;100.00;91933.06;2081079;28;20025;-80
2023/11/12 04:43:38;;;;;;;1.33;1.23;;;;;;;-0.35;100.00;91935.28;2095542;28;20033;-82
2023/11/12 04:44:39;;;;;;;1.30;1.20;;;;;;;-0.32;100.00;91931.91;2072381;28;20029;-81
2023/11/12 04:45:40;;;;;;;1.30;1.20;;;;;;;-0.30;100.00;91932.31;2054562;28;20026;-81
2023/11/12 04:46:41;;;;;;;1.40;1.30;;;;;;;-0.28;100.00;91930.78;2081078;28;20067;-80
2023/11/12 04:47:43;;;;;;;1.50;1.40;;;;;;;-0.38;100.00;91939.44;2078465;28;20036;-82
2023/11/12 04:48:44;;;;;;;2.53;1.10;;;;;;;-0.36;100.00;91934.53;2081361;28;20083;-81
2023/11/12 04:49:45;;;;;;;1.20;1.10;;;;;;;-0.31;100.00;91936.03;2090013;28;20028;-81
2023/11/12 04:50:56;;;;;;;1.35;1.25;;;;;;;-0.31;100.00;91931.56;2073354;28;20027;-82
2023/11/12 04:51:57;;;;;;;1.27;1.17;;;;;;;-0.33;100.00;91935.69;2090193;28;20029;-82